createdAt,value
2023-05-05T00:00:34.387Z,566.2308
2023-05-05T00:01:37.389Z,571.5385
2023-05-05T00:02:40.393Z,572.0769
2023-05-05T00:03:43.394Z,567.5385
2023-05-05T00:04:46.224Z,569.9231
2023-05-05T00:05:49.178Z,572.0769
2023-05-05T00:06:52.140Z,574.7692
2023-05-05T00:07:55.092Z,579.0000
2023-05-05T00:08:58.018Z,586.9231
2023-05-05T00:10:00.989Z,629.3846
2023-05-05T00:11:03.935Z,616.5385
2023-05-05T00:12:06.886Z,604.3077
2023-05-05T00:13:09.866Z,602.9231
2023-05-05T00:14:12.806Z,599.1539
2023-05-05T00:15:15.893Z,591.1539
2023-05-05T00:16:18.700Z,585.6154
2023-05-05T00:17:21.660Z,583.4615
2023-05-05T00:18:24.640Z,583.5385
2023-05-05T00:19:27.570Z,588.0000
2023-05-05T00:20:30.529Z,587.5385
2023-05-05T00:21:33.459Z,581.0769
2023-05-05T00:22:36.441Z,574.6923
2023-05-05T00:23:39.365Z,575.3077
2023-05-05T00:24:42.354Z,576.5385
2023-05-05T00:25:45.297Z,573.5385
2023-05-05T00:26:48.237Z,579.3846
2023-05-05T00:27:51.176Z,591.6154
2023-05-05T00:28:54.187Z,584.2308
2023-05-05T00:29:57.078Z,583.4615
2023-05-05T00:31:00.067Z,582.9231
2023-05-05T00:32:02.972Z,582.8461
2023-05-05T00:33:05.972Z,582.2308
2023-05-05T00:34:08.875Z,584.8461
2023-05-05T00:35:11.873Z,582.9231
2023-05-05T00:36:14.797Z,581.6154
2023-05-05T00:37:17.729Z,587.7692
2023-05-05T00:38:20.715Z,591.1539
2023-05-05T00:39:23.655Z,591.3846
2023-05-05T00:40:26.594Z,590.0769
2023-05-05T00:41:29.550Z,591.2308
2023-05-05T00:42:32.480Z,590.0769
2023-05-05T00:43:35.463Z,588.6154
2023-05-05T00:44:38.402Z,584.7692
2023-05-05T00:45:41.365Z,582.5385
2023-05-05T00:46:44.380Z,581.5385
2023-05-05T00:47:47.240Z,583.1539
2023-05-05T00:48:50.195Z,587.0000
2023-05-05T00:49:53.182Z,581.5385
2023-05-05T00:50:56.085Z,573.3077
2023-05-05T00:51:59.048Z,568.8461
2023-05-05T00:53:01.987Z,571.9231
2023-05-05T00:54:04.942Z,575.1539
2023-05-05T00:55:07.911Z,574.6154
2023-05-05T00:56:10.850Z,574.0769
2023-05-05T00:57:13.789Z,574.1539
2023-05-05T00:58:16.731Z,574.3077
2023-05-05T00:59:19.685Z,575.7692
2023-05-05T01:00:22.627Z,576.6154
2023-05-05T01:01:25.668Z,573.3077
2023-05-05T01:02:28.623Z,574.5385
2023-05-05T01:03:31.538Z,575.9231
2023-05-05T01:04:34.469Z,577.9231
2023-05-05T01:05:37.439Z,586.6154
2023-05-05T01:06:40.392Z,592.0000
2023-05-05T01:07:43.354Z,595.6923
2023-05-05T01:08:46.316Z,600.4615
2023-05-05T01:09:53.412Z,602.3077
2023-05-05T01:10:52.216Z,603.6154
2023-05-05T01:11:55.171Z,601.8461
2023-05-05T01:12:58.169Z,596.9231
2023-05-05T01:14:01.074Z,594.6154
2023-05-05T01:15:04.034Z,589.9231
2023-05-05T01:16:07.177Z,584.3077
2023-05-05T01:17:09.990Z,587.0769
2023-05-05T01:18:12.922Z,589.5385
2023-05-05T01:19:15.871Z,590.6154
2023-05-05T01:20:18.811Z,592.2308
2023-05-05T01:21:21.779Z,589.9231
2023-05-05T01:22:24.765Z,589.2308
2023-05-05T01:23:27.712Z,586.1539
2023-05-05T01:24:30.630Z,586.3846
2023-05-05T01:25:33.596Z,585.3077
2023-05-05T01:26:36.541Z,588.1539
2023-05-05T01:27:39.547Z,590.4615
2023-05-05T01:28:42.547Z,592.1539
2023-05-05T01:29:45.428Z,594.6154
2023-05-05T01:30:48.387Z,597.6923
2023-05-05T01:31:51.402Z,598.7692
2023-05-05T01:32:54.293Z,595.3846
2023-05-05T01:33:57.273Z,590.7692
2023-05-05T01:35:00.208Z,585.8461
2023-05-05T01:36:03.246Z,584.3846
2023-05-05T01:37:06.125Z,584.0769
2023-05-05T01:38:09.088Z,579.6923
2023-05-05T01:39:12.041Z,576.7692
2023-05-05T01:40:14.990Z,576.5385
2023-05-05T01:41:17.946Z,576.3077
2023-05-05T01:42:20.918Z,577.2308
2023-05-05T01:43:23.864Z,575.3077
2023-05-05T01:44:26.812Z,578.3846
2023-05-05T01:45:29.821Z,580.6923
2023-05-05T01:46:32.770Z,578.8461
2023-05-05T01:47:35.686Z,577.6154
2023-05-05T01:48:39.750Z,583.8461
2023-05-05T01:49:41.606Z,591.0769
2023-05-05T01:50:44.559Z,585.5385
2023-05-05T01:51:47.553Z,580.2308
2023-05-05T01:52:50.490Z,570.3846
2023-05-05T01:53:53.455Z,558.8461
2023-05-05T01:54:56.384Z,552.4615
2023-05-05T01:55:59.390Z,551.1539
2023-05-05T01:57:02.475Z,554.3846
2023-05-05T01:58:05.260Z,561.3846
2023-05-05T01:59:08.210Z,571.1539
2023-05-05T02:00:11.278Z,582.5385
2023-05-05T02:01:14.163Z,578.6923
2023-05-05T02:02:17.113Z,576.3846
2023-05-05T02:03:20.177Z,576.2308
2023-05-05T02:04:23.017Z,621.0769
2023-05-05T02:05:25.976Z,629.3077
2023-05-05T02:06:28.907Z,617.1539
2023-05-05T02:07:31.849Z,601.5385
2023-05-05T02:08:34.812Z,592.3077
2023-05-05T02:09:37.778Z,585.0769
2023-05-05T02:10:40.720Z,583.4615
2023-05-05T02:11:43.698Z,581.4615
2023-05-05T02:12:46.791Z,581.3077
2023-05-05T02:13:49.598Z,580.7692
2023-05-05T02:14:52.566Z,579.1539
2023-05-05T02:15:55.512Z,576.9231
2023-05-05T02:16:58.472Z,577.3846
2023-05-05T02:18:01.440Z,582.7692
2023-05-05T02:19:04.378Z,649.9231
2023-05-05T02:20:07.505Z,638.6923
2023-05-05T02:21:10.267Z,626.5385
2023-05-05T02:22:13.228Z,634.3846
2023-05-05T02:23:16.184Z,638.4615
2023-05-05T02:24:19.173Z,632.0769
2023-05-05T02:25:22.086Z,615.6154
2023-05-05T02:26:25.049Z,595.0769
2023-05-05T02:27:28.051Z,593.0769
2023-05-05T02:28:30.974Z,593.2308
2023-05-05T02:29:33.916Z,599.2308
2023-05-05T02:30:36.925Z,602.3077
2023-05-05T02:31:39.886Z,606.1539
2023-05-05T02:32:42.827Z,609.1539
2023-05-05T02:33:45.740Z,607.3077
2023-05-05T02:34:48.733Z,605.0769
2023-05-05T02:35:51.665Z,601.0000
2023-05-05T02:36:54.637Z,594.1539
2023-05-05T02:37:57.582Z,591.6154
2023-05-05T02:39:00.503Z,586.9231
2023-05-05T02:40:03.474Z,576.2308
2023-05-05T02:41:06.443Z,572.3846
2023-05-05T02:42:09.376Z,572.0769
2023-05-05T02:43:12.363Z,570.3846
2023-05-05T02:44:15.297Z,572.0000
2023-05-05T02:45:18.276Z,571.6923
2023-05-05T02:46:21.269Z,571.9231
2023-05-05T02:47:24.180Z,572.2308
2023-05-05T02:48:27.136Z,586.6154
2023-05-05T02:49:30.078Z,674.9231
2023-05-05T02:50:33.018Z,734.2308
2023-05-05T02:51:35.959Z,737.3077
2023-05-05T02:52:38.947Z,667.6154
2023-05-05T02:53:41.963Z,644.7692
2023-05-05T02:54:44.845Z,636.1539
2023-05-05T02:55:47.782Z,626.3077
2023-05-05T02:56:50.793Z,613.4615
2023-05-05T02:57:53.698Z,622.6154
2023-05-05T02:58:56.669Z,676.0000
2023-05-05T02:59:59.618Z,648.7692
2023-05-05T03:01:02.632Z,632.0769
2023-05-05T03:02:05.582Z,624.6154
2023-05-05T03:03:08.541Z,614.9231
2023-05-05T03:04:11.427Z,611.6923
2023-05-05T03:05:14.396Z,617.4615
2023-05-05T03:06:17.409Z,619.8461
2023-05-05T03:07:20.329Z,618.3846
2023-05-05T03:08:23.262Z,613.1539
2023-05-05T03:09:26.204Z,610.3846
2023-05-05T03:10:29.166Z,606.7692
2023-05-05T03:11:32.128Z,608.0000
2023-05-05T03:12:35.124Z,605.0769
2023-05-05T03:13:38.033Z,602.3846
2023-05-05T03:14:41.021Z,600.6923
2023-05-05T03:15:43.946Z,599.2308
2023-05-05T03:16:46.943Z,595.6923
2023-05-05T03:17:49.913Z,594.4615
2023-05-05T03:18:52.918Z,593.6923
2023-05-05T03:19:55.777Z,593.5385
2023-05-05T03:20:58.713Z,591.7692
2023-05-05T03:22:01.699Z,592.6154
2023-05-05T03:23:04.633Z,596.0000
2023-05-05T03:24:07.609Z,597.6923
2023-05-05T03:25:10.790Z,594.7692
2023-05-05T03:26:13.527Z,593.0769
2023-05-05T03:27:16.509Z,589.4615
2023-05-05T03:28:19.437Z,588.8461
2023-05-05T03:29:22.425Z,585.1539
2023-05-05T03:30:25.346Z,585.7692
2023-05-05T03:31:28.400Z,584.4615
2023-05-05T03:32:31.284Z,585.8461
2023-05-05T03:33:34.230Z,588.2308
2023-05-05T03:34:37.474Z,589.3846
2023-05-05T03:35:40.137Z,592.1539
2023-05-05T03:36:43.097Z,593.6154
2023-05-05T03:37:46.096Z,590.6154
2023-05-05T03:38:49.010Z,589.4615
2023-05-05T03:39:51.979Z,587.0769
2023-05-05T03:40:54.925Z,581.2308
2023-05-05T03:41:57.915Z,581.5385
2023-05-05T03:43:00.841Z,587.8461
2023-05-05T03:44:03.807Z,591.7692
2023-05-05T03:45:06.750Z,597.1539
2023-05-05T03:46:09.729Z,593.1539
2023-05-05T03:47:12.677Z,583.2308
2023-05-05T03:48:15.696Z,583.3846
2023-05-05T03:49:18.657Z,581.9231
2023-05-05T03:50:21.618Z,582.5385
2023-05-05T03:51:24.562Z,582.5385
2023-05-05T03:52:27.517Z,583.7692
2023-05-05T03:53:30.506Z,583.5385
2023-05-05T03:54:33.470Z,583.1539
2023-05-05T03:55:36.525Z,580.3846
2023-05-05T03:56:39.374Z,576.1539
2023-05-05T03:57:42.339Z,574.2308
2023-05-05T03:58:45.276Z,573.5385
2023-05-05T03:59:48.218Z,575.3846
2023-05-05T04:00:51.179Z,590.9231
2023-05-05T04:01:54.180Z,596.5385
2023-05-05T04:02:57.187Z,596.2308
2023-05-05T04:04:00.119Z,598.2308
2023-05-05T04:05:03.007Z,604.3846
2023-05-05T04:06:06.046Z,598.7692
2023-05-05T04:07:08.973Z,593.5385
2023-05-05T04:08:11.898Z,593.8461
2023-05-05T04:09:14.847Z,590.2308
2023-05-05T04:10:17.858Z,588.6923
2023-05-05T04:11:20.750Z,586.6154
2023-05-05T04:12:23.713Z,586.9231
2023-05-05T04:13:26.701Z,585.2308
2023-05-05T04:14:29.648Z,584.7692
2023-05-05T04:15:32.586Z,584.3846
2023-05-05T04:16:35.534Z,585.1539
2023-05-05T04:17:38.541Z,588.3846
2023-05-05T04:18:41.469Z,588.0000
2023-05-05T04:19:44.446Z,583.4615
2023-05-05T04:20:47.380Z,579.0000
2023-05-05T04:21:50.550Z,581.9231
2023-05-05T04:22:53.368Z,585.2308
2023-05-05T04:23:56.290Z,586.1539
2023-05-05T04:24:59.275Z,587.8461
2023-05-05T04:26:02.165Z,589.6154
2023-05-05T04:27:05.124Z,586.8461
2023-05-05T04:28:08.061Z,586.4615
2023-05-05T04:29:11.008Z,588.7692
2023-05-05T04:30:14.026Z,586.8461
2023-05-05T04:31:16.965Z,586.3846
2023-05-05T04:32:19.875Z,590.3077
2023-05-05T04:33:22.823Z,592.9231
2023-05-05T04:34:25.758Z,593.1539
2023-05-05T04:35:28.738Z,588.7692
2023-05-05T04:36:31.670Z,587.3077
2023-05-05T04:37:34.623Z,580.3846
2023-05-05T04:38:37.648Z,565.3846
2023-05-05T04:39:40.522Z,563.0000
2023-05-05T04:40:43.452Z,567.5385
2023-05-05T04:41:46.418Z,569.6154
2023-05-05T04:42:49.368Z,571.0769
2023-05-05T04:43:52.336Z,569.4615
2023-05-05T04:44:55.266Z,568.0769
2023-05-05T04:45:58.216Z,569.5385
2023-05-05T04:47:01.170Z,576.3077
2023-05-05T04:48:04.167Z,583.1539
2023-05-05T04:49:07.040Z,586.6923
2023-05-05T04:50:10.245Z,583.6154
2023-05-05T04:51:13.029Z,577.8461
2023-05-05T04:52:15.916Z,579.9231
2023-05-05T04:53:18.840Z,580.6923
2023-05-05T04:54:21.850Z,580.2308
2023-05-05T04:55:24.763Z,580.1539
2023-05-05T04:56:27.696Z,577.5385
2023-05-05T04:57:30.654Z,571.9231
2023-05-05T04:58:33.619Z,571.6923
2023-05-05T04:59:36.530Z,571.6923
2023-05-05T05:00:39.464Z,573.9231
2023-05-05T05:01:42.439Z,575.7692
2023-05-05T05:02:45.520Z,576.2308
2023-05-05T05:03:48.419Z,576.1539
2023-05-05T05:04:51.263Z,577.8461
2023-05-05T05:05:54.247Z,578.6923
2023-05-05T05:06:59.111Z,579.8461
2023-05-05T05:08:00.135Z,581.3077
2023-05-05T05:09:03.045Z,579.6923
2023-05-05T05:10:06.214Z,574.3846
2023-05-05T05:11:08.939Z,572.9231
2023-05-05T05:12:11.895Z,568.3846
2023-05-05T05:13:14.861Z,565.2308
2023-05-05T05:14:17.830Z,563.0000
2023-05-05T05:15:20.754Z,562.6154
2023-05-05T05:16:23.741Z,563.3077
2023-05-05T05:17:26.898Z,562.3846
2023-05-05T05:18:29.579Z,562.4615
2023-05-05T05:19:32.538Z,563.0000
2023-05-05T05:20:35.596Z,565.3846
2023-05-05T05:21:38.445Z,568.4615
2023-05-05T05:22:41.433Z,569.1539
2023-05-05T05:23:44.304Z,569.6923
2023-05-05T05:24:47.260Z,570.5385
2023-05-05T05:25:50.215Z,571.4615
2023-05-05T05:26:53.144Z,570.6923
2023-05-05T05:28:08.964Z,571.7692
2023-05-05T05:28:59.033Z,572.5385
2023-05-05T05:30:02.008Z,571.8461
2023-05-05T05:31:05.127Z,571.0769
2023-05-05T05:32:07.948Z,569.6154
2023-05-05T05:33:10.906Z,571.0000
2023-05-05T05:34:13.777Z,572.8461
2023-05-05T05:35:16.783Z,572.2308
2023-05-05T05:36:19.698Z,572.0000
2023-05-05T05:37:22.726Z,570.6154
2023-05-05T05:38:25.572Z,569.4615
2023-05-05T05:39:28.576Z,566.0769
2023-05-05T05:40:31.528Z,562.3846
2023-05-05T05:41:34.485Z,552.9231
2023-05-05T05:42:37.374Z,526.2308
2023-05-05T05:43:40.324Z,523.5385
2023-05-05T05:44:43.260Z,521.3077
2023-05-05T05:45:46.202Z,524.3846
2023-05-05T05:46:49.159Z,524.6923
2023-05-05T05:47:52.186Z,522.7692
2023-05-05T05:48:55.067Z,523.0769
2023-05-05T05:49:58.132Z,522.6154
2023-05-05T05:51:00.920Z,523.9231
2023-05-05T05:52:03.854Z,523.0000
2023-05-05T05:53:06.926Z,522.0000
2023-05-05T05:54:09.770Z,521.0769
2023-05-05T05:55:12.881Z,520.6923
2023-05-05T05:56:15.822Z,521.7692
2023-05-05T05:57:18.698Z,523.3077
2023-05-05T05:58:21.569Z,522.2308
2023-05-05T05:59:24.623Z,520.8461
2023-05-05T06:00:27.553Z,519.4615
2023-05-05T06:01:30.448Z,519.6154
2023-05-05T06:02:33.473Z,518.3077
2023-05-05T06:03:36.394Z,519.0000
2023-05-05T06:04:39.324Z,519.0769
2023-05-05T06:05:42.221Z,519.3077
2023-05-05T06:06:45.213Z,515.1539
2023-05-05T06:07:48.154Z,512.4615
2023-05-05T06:08:51.065Z,511.6923
2023-05-05T06:09:53.988Z,511.8462
2023-05-05T06:10:56.938Z,513.6154
2023-05-05T06:11:59.860Z,512.6154
2023-05-05T06:13:02.840Z,514.0000
2023-05-05T06:14:05.755Z,514.3846
2023-05-05T06:15:08.753Z,516.4615
2023-05-05T06:16:11.754Z,517.0769
2023-05-05T06:17:14.663Z,518.7692
2023-05-05T06:18:17.640Z,518.3077
2023-05-05T06:19:20.488Z,515.9231
2023-05-05T06:20:23.442Z,506.2308
2023-05-05T06:21:26.471Z,499.6154
2023-05-05T06:22:29.327Z,499.2308
2023-05-05T06:23:32.337Z,495.7692
2023-05-05T06:24:35.233Z,492.9231
2023-05-05T06:25:38.202Z,489.5385
2023-05-05T06:26:41.147Z,487.5385
2023-05-05T06:27:44.092Z,485.1538
2023-05-05T06:28:47.062Z,484.3846
2023-05-05T06:29:49.983Z,483.6923
2023-05-05T06:30:53.038Z,481.2308
2023-05-05T06:31:55.910Z,485.0769
2023-05-05T06:32:58.912Z,482.2308
2023-05-05T06:34:01.926Z,483.2308
2023-05-05T06:35:04.724Z,483.0769
2023-05-05T06:36:07.860Z,483.5385
2023-05-05T06:37:10.650Z,484.8462
2023-05-05T06:38:13.584Z,483.5385
2023-05-05T06:39:16.514Z,482.0769
2023-05-05T06:40:19.611Z,482.8462
2023-05-05T06:41:22.411Z,485.6154
2023-05-05T06:42:25.432Z,485.3846
2023-05-05T06:43:28.306Z,485.8462
2023-05-05T06:44:31.463Z,484.2308
2023-05-05T06:45:34.163Z,480.5385
2023-05-05T06:46:37.150Z,479.1538
2023-05-05T06:47:40.154Z,475.8462
2023-05-05T06:48:43.031Z,475.6923
2023-05-05T06:49:45.990Z,474.0000
2023-05-05T06:50:49.144Z,471.3846
2023-05-05T06:51:51.998Z,470.6154
2023-05-05T06:52:54.838Z,470.4615
2023-05-05T06:53:57.796Z,472.0000
2023-05-05T06:55:00.760Z,474.9231
2023-05-05T06:56:03.686Z,475.9231
2023-05-05T06:57:06.724Z,474.4615
2023-05-05T06:58:09.677Z,476.9231
2023-05-05T06:59:12.566Z,479.0769
2023-05-05T07:00:15.516Z,481.1538
2023-05-05T07:01:18.533Z,483.0769
2023-05-05T07:02:21.356Z,481.5385
2023-05-05T07:03:24.327Z,482.3846
2023-05-05T07:04:27.279Z,481.6154
2023-05-05T07:05:30.218Z,482.0000
2023-05-05T07:06:33.207Z,481.0000
2023-05-05T07:07:36.088Z,479.0000
2023-05-05T07:08:39.043Z,478.0000
2023-05-05T07:09:41.977Z,476.2308
2023-05-05T07:10:44.966Z,475.0000
2023-05-05T07:11:47.884Z,475.3846
2023-05-05T07:12:50.811Z,473.1538
2023-05-05T07:13:53.888Z,471.1538
2023-05-05T07:14:56.778Z,470.1538
2023-05-05T07:15:59.787Z,470.5385
2023-05-05T07:17:02.601Z,472.6154
2023-05-05T07:18:05.654Z,473.1538
2023-05-05T07:19:08.500Z,475.3077
2023-05-05T07:20:11.470Z,479.6923
2023-05-05T07:21:14.416Z,482.3077
2023-05-05T07:22:17.364Z,483.3846
2023-05-05T07:23:20.273Z,481.6923
2023-05-05T07:24:23.272Z,479.4615
2023-05-05T07:25:26.204Z,480.3077
2023-05-05T07:26:29.178Z,478.9231
2023-05-05T07:27:32.056Z,478.8462
2023-05-05T07:28:35.017Z,479.8462
2023-05-05T07:29:37.975Z,481.3846
2023-05-05T07:30:40.888Z,481.7692
2023-05-05T07:31:43.904Z,479.0769
2023-05-05T07:32:46.825Z,477.3846
2023-05-05T07:33:49.837Z,475.7692
2023-05-05T07:34:52.727Z,477.0769
2023-05-05T07:35:55.623Z,474.1538
2023-05-05T07:36:58.599Z,473.2308
2023-05-05T07:38:01.541Z,475.5385
2023-05-05T07:39:04.534Z,474.5385
2023-05-05T07:40:07.577Z,470.4615
2023-05-05T07:41:10.380Z,469.0000
2023-05-05T07:42:13.292Z,468.7692
2023-05-05T07:43:16.357Z,467.0769
2023-05-05T07:44:19.192Z,465.3846
2023-05-05T07:45:22.152Z,467.3846
2023-05-05T07:46:25.148Z,469.3077
2023-05-05T07:47:28.195Z,462.9231
2023-05-05T07:48:31.024Z,464.4615
2023-05-05T07:49:34.018Z,464.9231
2023-05-05T07:50:36.907Z,464.4615
2023-05-05T07:51:39.843Z,465.0000
2023-05-05T07:52:46.820Z,466.2308
2023-05-05T07:53:45.805Z,464.7692
2023-05-05T07:54:48.677Z,464.7692
2023-05-05T07:55:51.742Z,464.2308
2023-05-05T07:56:54.653Z,466.8462
2023-05-05T07:57:57.590Z,467.6923
2023-05-05T07:59:00.557Z,465.4615
2023-05-05T08:00:03.501Z,464.2308
2023-05-05T08:01:06.483Z,464.5385
2023-05-05T08:02:09.634Z,462.4615
2023-05-05T08:03:12.552Z,462.1538
2023-05-05T08:04:15.335Z,461.6923
2023-05-05T08:05:18.253Z,461.0769
2023-05-05T08:06:21.198Z,460.9231
2023-05-05T08:07:24.184Z,459.2308
2023-05-05T08:08:27.097Z,461.5385
2023-05-05T08:09:30.055Z,461.0769
2023-05-05T08:10:33.002Z,457.3077
2023-05-05T08:11:35.956Z,455.6923
2023-05-05T08:12:39.004Z,458.1538
2023-05-05T08:13:41.888Z,456.3846
2023-05-05T08:14:44.825Z,456.0000
2023-05-05T08:15:47.858Z,455.8462
2023-05-05T08:16:50.705Z,456.6154
2023-05-05T08:17:53.711Z,456.3846
2023-05-05T08:18:56.675Z,455.0769
2023-05-05T08:19:59.569Z,455.0000
2023-05-05T08:21:02.537Z,456.9231
2023-05-05T08:22:05.473Z,456.4615
2023-05-05T08:23:08.456Z,457.3077
2023-05-05T08:24:11.406Z,459.1538
2023-05-05T08:25:14.336Z,459.6154
2023-05-05T08:26:17.413Z,459.2308
2023-05-05T08:27:20.225Z,458.6154
2023-05-05T08:28:23.235Z,458.7692
2023-05-05T08:29:26.205Z,467.0000
2023-05-05T08:30:29.082Z,467.3846
2023-05-05T08:31:32.074Z,470.0769
2023-05-05T08:32:35.170Z,464.2308
2023-05-05T08:33:37.965Z,459.5385
2023-05-05T08:34:41.009Z,459.0769
2023-05-05T08:35:43.846Z,456.5385
2023-05-05T08:36:46.807Z,454.6923
2023-05-05T08:37:49.743Z,456.4615
2023-05-05T08:38:52.688Z,456.0000
2023-05-05T08:39:55.643Z,457.4615
2023-05-05T08:40:58.698Z,457.0000
2023-05-05T08:42:01.653Z,454.7692
2023-05-05T08:43:04.522Z,454.0000
2023-05-05T08:44:07.456Z,449.8462
2023-05-05T08:45:10.926Z,450.0000
2023-05-05T08:46:13.554Z,448.2308
2023-05-05T08:47:16.357Z,446.8462
2023-05-05T08:48:19.367Z,451.4615
2023-05-05T08:49:22.378Z,450.0000
2023-05-05T08:50:25.267Z,447.3077
2023-05-05T08:51:28.133Z,444.6154
2023-05-05T08:52:31.174Z,444.1538
2023-05-05T08:53:34.039Z,444.9231
2023-05-05T08:54:36.981Z,445.4615
2023-05-05T08:55:39.965Z,443.8462
2023-05-05T08:56:42.912Z,447.1538
2023-05-05T08:57:45.830Z,448.6923
2023-05-05T08:58:48.802Z,445.7692
2023-05-05T08:59:51.769Z,439.9231
2023-05-05T09:00:54.757Z,437.1538
2023-05-05T09:01:57.690Z,437.6923
2023-05-05T09:03:00.854Z,441.4615
2023-05-05T09:04:03.572Z,446.8462
2023-05-05T09:05:06.825Z,445.7692
2023-05-05T09:06:09.641Z,443.3077
2023-05-05T09:07:12.459Z,445.6923
2023-05-05T09:08:15.422Z,458.6154
2023-05-05T09:09:18.339Z,465.0000
2023-05-05T09:10:21.391Z,460.3077
2023-05-05T09:11:24.280Z,460.1538
2023-05-05T09:12:27.183Z,452.3077
2023-05-05T09:13:30.142Z,446.1538
2023-05-05T09:14:33.083Z,442.8462
2023-05-05T09:15:36.076Z,441.7692
2023-05-05T09:16:38.969Z,441.0000
2023-05-05T09:17:42.071Z,437.9231
2023-05-05T09:18:44.878Z,439.8462
2023-05-05T09:19:47.835Z,436.4615
2023-05-05T09:20:50.799Z,436.0769
2023-05-05T09:21:53.794Z,443.1538
2023-05-05T09:22:56.717Z,438.5385
2023-05-05T09:24:04.919Z,438.7692
2023-05-05T09:25:02.614Z,435.7692
2023-05-05T09:26:05.572Z,433.7692
2023-05-05T09:27:08.539Z,432.8462
2023-05-05T09:28:11.501Z,432.6154
2023-05-05T09:29:14.417Z,430.4615
2023-05-05T09:30:17.569Z,432.0769
2023-05-05T09:31:20.371Z,432.3077
2023-05-05T09:32:23.322Z,432.2308
2023-05-05T09:33:26.534Z,429.9231
2023-05-05T09:34:29.186Z,427.6923
2023-05-05T09:35:32.141Z,427.6923
2023-05-05T09:36:35.118Z,428.1538
2023-05-05T09:37:38.187Z,429.8462
2023-05-05T09:38:41.002Z,430.9231
2023-05-05T09:39:43.950Z,432.3077
2023-05-05T09:40:46.900Z,439.0769
2023-05-05T09:41:49.910Z,439.6154
2023-05-05T09:42:52.812Z,438.8462
2023-05-05T09:43:55.746Z,438.3846
2023-05-05T09:45:00.042Z,436.7692
2023-05-05T09:46:01.764Z,436.3846
2023-05-05T09:47:09.464Z,435.5385
2023-05-05T09:48:07.585Z,435.8462
2023-05-05T09:49:10.554Z,434.1538
2023-05-05T09:50:13.495Z,429.3846
2023-05-05T09:51:16.500Z,429.1538
2023-05-05T09:52:19.409Z,431.0769
2023-05-05T09:53:22.447Z,429.3077
2023-05-05T09:54:25.338Z,427.2308
2023-05-05T09:55:28.237Z,426.4615
2023-05-05T09:56:31.199Z,424.2308
2023-05-05T09:57:34.164Z,424.3846
2023-05-05T09:58:37.173Z,425.4615
2023-05-05T09:59:40.147Z,426.0769
2023-05-05T10:00:43.025Z,425.0769
2023-05-05T10:01:45.997Z,429.7692
2023-05-05T10:02:48.955Z,424.4615
2023-05-05T10:03:51.902Z,427.1538
2023-05-05T10:04:54.873Z,428.0769
2023-05-05T10:05:57.824Z,431.7692
2023-05-05T10:07:00.754Z,429.0000
2023-05-05T10:08:03.722Z,429.3077
2023-05-05T10:09:06.636Z,430.1538
2023-05-05T10:10:09.994Z,426.8462
2023-05-05T10:11:12.590Z,424.3846
2023-05-05T10:12:15.551Z,426.2308
2023-05-05T10:13:18.652Z,425.2308
2023-05-05T10:14:21.399Z,421.0769
2023-05-05T10:15:24.521Z,419.6154
2023-05-05T10:16:28.613Z,420.4615
2023-05-05T10:17:30.297Z,423.6923
2023-05-05T10:18:33.226Z,427.0000
2023-05-05T10:19:36.204Z,428.0769
2023-05-05T10:20:39.180Z,428.3846
2023-05-05T10:21:42.324Z,425.4615
2023-05-05T10:22:45.055Z,426.6923
2023-05-05T10:23:48.033Z,425.5385
2023-05-05T10:24:50.914Z,424.3077
2023-05-05T10:25:53.899Z,425.8462
2023-05-05T10:26:56.875Z,428.6154
2023-05-05T10:27:59.785Z,425.0769
2023-05-05T10:29:02.743Z,425.0000
2023-05-05T10:30:05.791Z,423.4615
2023-05-05T10:31:23.955Z,422.4615
2023-05-05T10:32:33.577Z,424.0000
2023-05-05T10:33:31.207Z,427.8462
2023-05-05T10:34:17.553Z,426.2308
2023-05-05T10:35:20.485Z,423.4615
2023-05-05T10:36:24.472Z,425.8462
2023-05-05T10:37:26.415Z,427.3846
2023-05-05T10:38:29.367Z,427.0000
2023-05-05T10:39:32.316Z,426.8462
2023-05-05T10:40:35.429Z,426.3077
2023-05-05T10:41:38.246Z,427.3846
2023-05-05T10:42:41.191Z,443.9231
2023-05-05T10:43:44.148Z,498.9231
2023-05-05T10:44:47.151Z,507.0769
2023-05-05T10:45:50.181Z,437.3846
2023-05-05T10:46:53.042Z,432.3846
2023-05-05T10:47:56.026Z,431.8462
2023-05-05T10:48:58.981Z,429.5385
2023-05-05T10:50:01.934Z,437.6154
2023-05-05T10:51:04.918Z,439.8462
2023-05-05T10:52:07.952Z,439.6923
2023-05-05T10:53:10.828Z,442.3077
2023-05-05T10:54:13.836Z,435.2308
2023-05-05T10:55:16.765Z,426.8462
2023-05-05T10:56:19.790Z,422.2308
2023-05-05T10:57:22.655Z,414.0000
2023-05-05T10:58:25.812Z,416.0000
2023-05-05T10:59:28.680Z,414.7692
2023-05-05T11:00:31.811Z,413.0000
2023-05-05T11:01:34.940Z,419.1538
2023-05-05T11:02:38.008Z,420.1538
2023-05-05T11:03:40.534Z,419.4615
2023-05-05T11:04:43.511Z,420.6154
2023-05-05T11:05:46.408Z,423.3077
2023-05-05T11:06:49.636Z,423.7692
2023-05-05T11:07:52.377Z,423.9231
2023-05-05T11:08:55.447Z,419.7692
2023-05-05T11:09:58.284Z,417.7692
2023-05-05T11:11:01.287Z,416.3077
2023-05-05T11:12:04.348Z,418.6154
2023-05-05T11:13:07.184Z,415.3846
2023-05-05T11:14:10.110Z,422.8462
2023-05-05T11:15:13.084Z,420.3846
2023-05-05T11:16:16.067Z,420.5385
2023-05-05T11:17:19.056Z,422.2308
2023-05-05T11:18:21.978Z,423.7692
2023-05-05T11:19:24.902Z,426.4615
2023-05-05T11:20:27.897Z,437.4615
2023-05-05T11:21:30.838Z,429.5385
2023-05-05T11:22:33.803Z,425.5385
2023-05-05T11:23:36.781Z,424.0769
2023-05-05T11:24:39.746Z,424.0000
2023-05-05T11:25:42.691Z,425.5385
2023-05-05T11:26:45.648Z,425.1538
2023-05-05T11:27:48.689Z,425.5385
2023-05-05T11:28:51.616Z,422.9231
2023-05-05T11:29:54.546Z,423.5385
2023-05-05T11:30:58.229Z,423.5385
2023-05-05T11:32:00.457Z,421.5385
2023-05-05T11:33:03.488Z,421.0769
2023-05-05T11:34:06.368Z,425.9231
2023-05-05T11:35:09.358Z,428.6154
2023-05-05T11:36:12.347Z,422.9231
2023-05-05T11:37:15.252Z,421.3846
2023-05-05T11:38:18.205Z,420.0769
2023-05-05T11:39:21.182Z,421.6154
2023-05-05T11:40:24.135Z,424.8462
2023-05-05T11:41:27.114Z,419.8462
2023-05-05T11:42:30.039Z,420.3846
2023-05-05T11:43:33.129Z,434.6154
2023-05-05T11:44:36.132Z,433.3846
2023-05-05T11:45:38.942Z,429.0000
2023-05-05T11:46:41.871Z,429.3846
2023-05-05T11:47:44.905Z,431.5385
2023-05-05T11:48:47.791Z,429.3846
2023-05-05T11:49:52.096Z,431.6923
2023-05-05T11:51:09.587Z,446.9091
2023-05-05T11:52:04.793Z,444.3000
2023-05-05T11:52:59.621Z,431.0833
2023-05-05T11:54:02.669Z,429.8462
2023-05-05T11:55:05.545Z,434.5385
2023-05-05T11:56:08.698Z,455.6154
2023-05-05T11:57:11.460Z,436.5385
2023-05-05T11:58:14.468Z,481.9231
2023-05-05T11:59:17.416Z,498.4615
2023-05-05T12:00:20.501Z,437.8462
2023-05-05T12:01:23.330Z,421.2308
2023-05-05T12:02:26.381Z,421.6923
2023-05-05T12:03:29.392Z,420.3846
2023-05-05T12:04:32.393Z,417.2308
2023-05-05T12:05:36.714Z,414.3077
2023-05-05T12:06:38.138Z,419.6154
2023-05-05T12:07:41.102Z,423.9231
2023-05-05T12:08:44.055Z,468.5385
2023-05-05T12:09:47.043Z,477.1538
2023-05-05T12:10:50.009Z,432.6154
2023-05-05T12:11:52.941Z,423.2308
2023-05-05T12:12:56.107Z,424.5385
2023-05-05T12:13:58.864Z,427.0769
2023-05-05T12:15:01.894Z,434.0000
2023-05-05T12:16:04.858Z,429.2308
2023-05-05T12:17:07.774Z,451.2308
2023-05-05T12:18:10.737Z,427.2308
2023-05-05T12:19:13.701Z,419.0769